createdAt,value
2019-01-27T00:01:30.361Z,3.50
2019-01-27T00:04:12.774Z,3.50
2019-01-27T00:06:55.310Z,3.50
2019-01-27T00:09:38.282Z,3.50
2019-01-27T00:12:20.086Z,3.50
2019-01-27T00:15:03.199Z,3.50
2019-01-27T00:17:45.739Z,3.50
2019-01-27T00:20:28.099Z,3.50
2019-01-27T00:23:10.567Z,3.50
2019-01-27T00:25:53.049Z,3.60
2019-01-27T00:28:35.501Z,3.60
2019-01-27T00:31:18.205Z,3.60
2019-01-27T00:34:00.298Z,3.60
2019-01-27T00:36:42.422Z,3.60
2019-01-27T00:39:24.579Z,3.60
2019-01-27T00:42:06.637Z,3.60
2019-01-27T00:44:49.273Z,3.60
2019-01-27T00:47:31.468Z,3.60
2019-01-27T00:50:13.317Z,3.60
2019-01-27T00:52:55.441Z,3.60
2019-01-27T00:55:37.609Z,3.60
2019-01-27T00:58:19.661Z,3.60
2019-01-27T01:01:01.881Z,3.60
2019-01-27T01:03:43.682Z,3.60
2019-01-27T01:06:25.494Z,3.60
2019-01-27T01:09:07.616Z,3.60
2019-01-27T01:11:49.467Z,3.60
2019-01-27T01:14:31.923Z,3.60
2019-01-27T01:17:14.593Z,3.60
2019-01-27T01:19:56.986Z,3.60
2019-01-27T01:22:39.626Z,3.60
2019-01-27T01:25:22.254Z,3.60
2019-01-27T01:28:04.813Z,3.60
2019-01-27T01:30:46.900Z,3.60
2019-01-27T01:33:29.054Z,3.60
2019-01-27T01:36:11.064Z,3.60
2019-01-27T01:38:53.423Z,3.50
2019-01-27T01:41:35.642Z,3.50
2019-01-27T01:44:17.419Z,3.50
2019-01-27T01:46:59.594Z,3.50
2019-01-27T01:49:41.677Z,3.50
2019-01-27T01:52:23.818Z,3.60
2019-01-27T01:55:05.751Z,3.50
2019-01-27T01:57:48.247Z,3.50
2019-01-27T02:00:30.773Z,3.50
2019-01-27T02:03:12.925Z,3.50
2019-01-27T02:05:55.275Z,3.50
2019-01-27T02:08:37.298Z,3.50
2019-01-27T02:11:19.399Z,3.50
2019-01-27T02:14:01.663Z,3.50
2019-01-27T02:16:44.129Z,3.50
2019-01-27T02:19:26.542Z,3.50
2019-01-27T02:22:08.395Z,3.60
2019-01-27T02:24:50.684Z,3.60
2019-01-27T02:27:32.732Z,3.50
2019-01-27T02:30:15.125Z,3.60
2019-01-27T02:33:00.254Z,3.60
2019-01-27T02:35:42.535Z,3.60
2019-01-27T02:38:24.725Z,3.60
2019-01-27T02:41:06.946Z,3.60
2019-01-27T02:43:49.042Z,3.60
2019-01-27T02:46:31.826Z,3.60
2019-01-27T02:49:13.829Z,3.70
2019-01-27T02:51:56.019Z,3.70
2019-01-27T02:54:37.966Z,3.70
2019-01-27T02:57:20.705Z,3.70
2019-01-27T03:00:02.989Z,3.70
2019-01-27T03:02:45.041Z,3.70
2019-01-27T03:05:49.358Z,3.70
2019-01-27T03:12:07.418Z,3.70
2019-01-27T03:14:49.725Z,3.80
2019-01-27T03:17:32.438Z,3.80
2019-01-27T03:20:14.544Z,3.70
2019-01-27T03:22:56.571Z,3.80
2019-01-27T03:25:38.515Z,3.80
2019-01-27T03:28:20.971Z,3.70
2019-01-27T03:31:03.149Z,3.70
2019-01-27T03:33:45.004Z,3.70
2019-01-27T03:36:27.130Z,3.70
2019-01-27T03:39:09.343Z,3.70
2019-01-27T03:41:51.764Z,3.70
2019-01-27T03:44:33.923Z,3.70
2019-01-27T03:47:15.867Z,3.70
2019-01-27T03:49:58.264Z,3.70
2019-01-27T03:52:41.570Z,3.70
2019-01-27T03:55:23.722Z,3.70
2019-01-27T03:58:05.573Z,3.70
2019-01-27T04:00:47.473Z,3.70
2019-01-27T04:03:29.782Z,3.70
2019-01-27T04:06:12.106Z,3.70
2019-01-27T04:08:54.347Z,3.80
2019-01-27T04:11:36.847Z,3.80
2019-01-27T04:14:19.237Z,3.80
2019-01-27T04:17:01.788Z,3.80
2019-01-27T04:19:44.096Z,3.80
2019-01-27T04:22:26.159Z,3.80
2019-01-27T04:25:08.214Z,3.80
2019-01-27T04:27:50.792Z,3.90
2019-01-27T04:30:34.981Z,3.90
2019-01-27T04:33:17.015Z,3.90
2019-01-27T04:35:59.235Z,3.90
2019-01-27T04:38:41.549Z,3.90
2019-01-27T04:41:23.840Z,3.90
2019-01-27T04:44:06.448Z,3.90
2019-01-27T04:46:49.050Z,3.90
2019-01-27T04:49:31.646Z,3.90
2019-01-27T04:52:13.442Z,3.90
2019-01-27T04:54:55.670Z,3.80
2019-01-27T04:57:37.730Z,3.80
2019-01-27T05:00:19.594Z,3.80
2019-01-27T05:06:07.783Z,3.90
2019-01-27T05:08:49.535Z,3.90
2019-01-27T05:11:31.730Z,3.90
2019-01-27T05:14:14.019Z,3.90
2019-01-27T05:16:55.983Z,3.90
2019-01-27T05:19:38.327Z,3.90
2019-01-27T05:22:20.700Z,3.90
2019-01-27T05:25:03.078Z,4.00
2019-01-27T05:27:45.298Z,3.90
2019-01-27T05:30:27.063Z,4.00
2019-01-27T05:33:09.077Z,3.90
2019-01-27T05:35:51.569Z,3.90
2019-01-27T05:38:34.105Z,3.90
2019-01-27T05:41:16.401Z,3.90
2019-01-27T05:43:58.350Z,3.80
2019-01-27T05:46:40.894Z,3.80
2019-01-27T05:49:23.462Z,3.80
2019-01-27T05:52:05.470Z,3.80
2019-01-27T05:54:47.977Z,3.80
2019-01-27T05:57:30.273Z,3.80
2019-01-27T06:00:12.279Z,3.80
2019-01-27T06:02:54.597Z,3.80
2019-01-27T06:05:36.866Z,3.80
2019-01-27T06:08:19.297Z,3.80
2019-01-27T06:11:01.159Z,3.80
2019-01-27T06:13:43.616Z,3.80
2019-01-27T06:16:25.549Z,3.80
2019-01-27T06:19:07.943Z,3.80
2019-01-27T06:21:50.146Z,3.80
2019-01-27T06:24:32.354Z,3.90
2019-01-27T06:27:14.033Z,3.80
2019-01-27T06:29:56.465Z,3.80
2019-01-27T06:32:58.615Z,3.90
2019-01-27T06:35:41.181Z,3.90
2019-01-27T06:38:23.662Z,3.90
2019-01-27T06:41:05.455Z,3.90
2019-01-27T06:43:47.364Z,3.90
2019-01-27T06:46:29.430Z,3.90
2019-01-27T06:49:11.979Z,3.90
2019-01-27T06:51:54.581Z,3.90
2019-01-27T06:54:37.241Z,3.90
2019-01-27T06:57:19.745Z,3.90
2019-01-27T07:00:26.843Z,3.90
2019-01-27T07:03:32.331Z,3.90
2019-01-27T07:06:36.162Z,4.00
2019-01-27T07:09:37.199Z,4.00
2019-01-27T07:15:40.595Z,4.00
2019-01-27T07:18:47.435Z,4.00
2019-01-27T07:25:13.747Z,4.10
2019-01-27T07:28:28.497Z,4.10
2019-01-27T07:31:39.407Z,4.30
2019-01-27T07:37:46.043Z,4.40
2019-01-27T07:44:06.122Z,4.40
2019-01-27T07:47:13.343Z,4.40
2019-01-27T07:50:14.029Z,4.40
2019-01-27T07:53:04.940Z,4.40
2019-01-27T07:55:57.926Z,4.30
2019-01-27T07:59:00.981Z,4.40
2019-01-27T08:01:59.442Z,4.30
2019-01-27T08:04:48.585Z,4.30
2019-01-27T08:07:50.236Z,4.30
2019-01-27T08:10:57.119Z,4.30
2019-01-27T08:13:50.747Z,4.30
2019-01-27T08:16:51.828Z,4.30
2019-01-27T08:23:05.737Z,4.30
2019-01-27T08:26:07.165Z,4.30
2019-01-27T08:29:08.555Z,4.60
2019-01-27T08:32:21.751Z,4.60
2019-01-27T08:35:35.574Z,4.60
2019-01-27T08:38:39.328Z,4.50
2019-01-27T08:41:40.059Z,4.40
2019-01-27T08:44:41.315Z,4.30
2019-01-27T08:47:23.797Z,4.20
2019-01-27T08:50:06.568Z,4.30
2019-01-27T08:52:49.061Z,4.40
2019-01-27T08:55:31.252Z,4.40
2019-01-27T08:58:13.138Z,4.50
2019-01-27T09:04:24.935Z,4.80
2019-01-27T09:07:25.614Z,4.70
2019-01-27T09:10:26.628Z,4.70
2019-01-27T09:13:27.591Z,4.60
2019-01-27T09:16:28.752Z,4.60
2019-01-27T09:19:29.676Z,4.50
2019-01-27T09:22:34.083Z,4.50
2019-01-27T09:25:34.784Z,4.50
2019-01-27T09:28:27.841Z,4.40
2019-01-27T09:31:29.355Z,4.50
2019-01-27T09:34:33.279Z,4.40
2019-01-27T09:37:34.104Z,4.40
2019-01-27T09:43:37.474Z,4.40
2019-01-27T09:49:41.790Z,4.40
2019-01-27T09:52:34.203Z,4.50
2019-01-27T09:55:35.381Z,4.40
2019-01-27T09:58:28.415Z,4.40
2019-01-27T10:01:29.570Z,4.40
2019-01-27T10:04:30.347Z,4.50
2019-01-27T10:07:28.176Z,4.50
2019-01-27T10:10:35.477Z,4.60
2019-01-27T10:13:36.731Z,4.50
2019-01-27T10:16:29.246Z,4.60
2019-01-27T10:19:36.066Z,4.60
2019-01-27T10:22:39.057Z,4.50
2019-01-27T10:25:42.877Z,4.50
2019-01-27T10:28:43.700Z,4.50
2019-01-27T10:31:47.605Z,4.50
2019-01-27T10:34:38.869Z,4.60
2019-01-27T10:44:22.680Z,4.70
2019-01-27T10:47:17.414Z,4.70
2019-01-27T10:50:04.703Z,4.70
2019-01-27T10:53:06.659Z,4.80
2019-01-27T10:59:42.519Z,4.80
2019-01-27T11:05:47.829Z,5.00
2019-01-27T11:08:43.161Z,5.10
2019-01-27T11:15:03.403Z,5.20
2019-01-27T11:17:55.981Z,5.20
2019-01-27T11:21:03.207Z,5.20
2019-01-27T11:27:05.618Z,5.30
2019-01-27T11:33:03.256Z,5.40
2019-01-27T11:39:09.162Z,5.40
2019-01-27T11:45:48.961Z,5.50
2019-01-27T11:48:49.911Z,5.50
2019-01-27T11:51:56.141Z,5.60
2019-01-27T11:54:38.211Z,5.60
2019-01-27T11:57:19.942Z,5.60
2019-01-27T12:00:02.483Z,5.60
2019-01-27T12:02:46.742Z,5.60
2019-01-27T12:05:29.046Z,5.50
2019-01-27T12:08:10.914Z,5.50
2019-01-27T12:10:52.993Z,5.50
2019-01-27T12:13:35.267Z,5.60
2019-01-27T12:16:17.067Z,5.60
2019-01-27T12:18:59.062Z,5.70
2019-01-27T12:21:41.009Z,5.70
2019-01-27T12:24:24.933Z,5.80
2019-01-27T12:27:07.324Z,5.80
2019-01-27T12:29:49.455Z,5.80
2019-01-27T12:32:31.621Z,5.80
2019-01-27T12:35:14.265Z,5.90
2019-01-27T12:37:56.067Z,5.80
2019-01-27T12:40:40.094Z,5.90
2019-01-27T12:43:22.154Z,5.90
2019-01-27T12:46:04.276Z,5.90
2019-01-27T12:48:46.589Z,6.00
2019-01-27T12:51:30.888Z,6.00
2019-01-27T12:54:12.808Z,6.00
2019-01-27T12:56:54.752Z,6.10
2019-01-27T12:59:36.834Z,6.10
2019-01-27T13:02:19.185Z,6.10
2019-01-27T13:05:01.847Z,6.20
2019-01-27T13:07:43.585Z,6.20
2019-01-27T13:10:25.650Z,6.30
2019-01-27T13:13:11.911Z,6.30
2019-01-27T13:15:51.101Z,6.20
2019-01-27T13:18:32.918Z,6.20
2019-01-27T13:21:15.041Z,6.30
2019-01-27T13:23:57.477Z,6.20
2019-01-27T13:26:39.828Z,6.20
2019-01-27T13:29:21.763Z,6.10
2019-01-27T13:32:04.077Z,6.20
2019-01-27T13:34:46.043Z,6.20
2019-01-27T13:37:28.413Z,6.20
2019-01-27T13:40:12.061Z,6.20
2019-01-27T13:43:13.298Z,6.20
2019-01-27T13:46:02.867Z,6.20
2019-01-27T13:48:45.290Z,6.20
2019-01-27T13:51:27.332Z,6.20
2019-01-27T13:54:09.451Z,6.20
2019-01-27T13:56:51.503Z,6.10
2019-01-27T13:59:33.570Z,6.20
2019-01-27T14:02:15.455Z,6.30
2019-01-27T14:04:57.695Z,6.30
2019-01-27T14:07:39.880Z,6.20
2019-01-27T14:10:22.070Z,6.20
2019-01-27T14:13:04.575Z,6.30
2019-01-27T14:15:46.767Z,6.40
2019-01-27T14:18:28.884Z,6.20
2019-01-27T14:21:16.515Z,6.20
2019-01-27T14:23:55.559Z,6.20
2019-01-27T14:26:37.695Z,6.20
2019-01-27T14:29:19.987Z,6.20
2019-01-27T14:32:02.657Z,6.20
2019-01-27T14:34:44.893Z,6.20
2019-01-27T14:37:27.587Z,6.10
2019-01-27T14:40:09.579Z,6.10
2019-01-27T14:42:52.072Z,6.10
2019-01-27T14:45:34.477Z,6.00
2019-01-27T14:48:16.768Z,6.00
2019-01-27T14:50:58.747Z,5.90
2019-01-27T14:53:41.009Z,6.00
2019-01-27T14:56:23.489Z,5.90
2019-01-27T14:59:06.110Z,5.90
2019-01-27T15:01:48.453Z,5.80
2019-01-27T15:04:30.485Z,5.80
2019-01-27T15:07:12.863Z,5.80
2019-01-27T15:09:54.955Z,5.70
2019-01-27T15:12:36.930Z,5.70
2019-01-27T15:15:19.393Z,5.70
2019-01-27T15:18:01.826Z,5.70
2019-01-27T15:20:43.977Z,5.70
2019-01-27T15:23:25.722Z,5.70
2019-01-27T15:26:07.886Z,5.70
2019-01-27T15:28:50.366Z,5.70
2019-01-27T15:31:32.543Z,5.60
2019-01-27T15:34:14.997Z,5.60
2019-01-27T15:36:57.114Z,5.50
2019-01-27T15:39:38.972Z,5.50
2019-01-27T15:42:21.390Z,5.50
2019-01-27T15:45:03.511Z,5.50
2019-01-27T15:47:46.069Z,5.40
2019-01-27T15:50:29.206Z,5.40
2019-01-27T15:53:11.770Z,5.30
2019-01-27T15:55:54.043Z,5.30
2019-01-27T15:58:36.745Z,5.30
2019-01-27T16:01:19.127Z,5.30
2019-01-27T16:04:01.510Z,5.20
2019-01-27T16:06:43.553Z,5.20
2019-01-27T16:09:25.659Z,5.20
2019-01-27T16:12:08.134Z,5.20
2019-01-27T16:14:50.031Z,5.20
2019-01-27T16:17:32.372Z,5.20
2019-01-27T16:20:14.239Z,5.20
2019-01-27T16:23:29.296Z,5.20
2019-01-27T16:26:19.137Z,5.10
2019-01-27T16:29:01.241Z,5.10
2019-01-27T16:31:57.456Z,5.10
2019-01-27T16:34:43.648Z,5.10
2019-01-27T16:37:25.530Z,5.10
2019-01-27T16:40:07.567Z,5.10
2019-01-27T16:42:49.729Z,5.10
2019-01-27T16:45:31.738Z,5.10
2019-01-27T16:48:14.122Z,5.10
2019-01-27T16:50:56.183Z,5.10
2019-01-27T16:53:38.233Z,5.10
2019-01-27T16:56:20.220Z,5.10
2019-01-27T16:59:02.709Z,5.00
2019-01-27T17:01:44.683Z,5.00
2019-01-27T17:04:27.409Z,5.00
2019-01-27T17:07:10.090Z,5.00
2019-01-27T17:09:51.970Z,5.00
2019-01-27T17:12:33.969Z,5.00
2019-01-27T17:15:16.497Z,5.00
2019-01-27T17:17:59.038Z,5.00
2019-01-27T17:20:41.127Z,5.00
2019-01-27T17:23:23.318Z,5.00
2019-01-27T17:26:05.735Z,5.00
2019-01-27T17:28:48.521Z,5.00
2019-01-27T17:31:30.877Z,5.00
2019-01-27T17:34:12.759Z,5.00
2019-01-27T17:36:55.097Z,5.00
2019-01-27T17:39:37.106Z,5.00
2019-01-27T17:42:19.547Z,5.00
2019-01-27T17:45:02.161Z,5.00
2019-01-27T17:47:44.726Z,5.00
2019-01-27T17:50:26.683Z,5.00
2019-01-27T17:53:08.573Z,5.00
2019-01-27T17:55:50.872Z,5.00
2019-01-27T18:02:13.829Z,5.10
2019-01-27T18:08:39.831Z,5.10
2019-01-27T18:11:40.539Z,5.10
2019-01-27T18:14:27.670Z,5.10
2019-01-27T18:17:10.103Z,5.10
2019-01-27T18:19:52.070Z,5.10
2019-01-27T18:22:34.000Z,5.10
2019-01-27T18:25:16.472Z,5.20
2019-01-27T18:27:58.258Z,5.20
2019-01-27T18:30:40.376Z,5.20
2019-01-27T18:33:22.228Z,5.30
2019-01-27T18:36:04.411Z,5.30
2019-01-27T18:41:26.841Z,5.20
2019-01-27T18:44:09.497Z,5.20
2019-01-27T18:46:51.573Z,5.20
2019-01-27T18:49:33.462Z,5.20
2019-01-27T18:52:15.701Z,5.20
2019-01-27T18:58:19.337Z,5.20
2019-01-27T19:01:20.463Z,5.20
2019-01-27T19:04:08.972Z,5.20
2019-01-27T19:07:10.231Z,5.20
2019-01-27T19:10:30.488Z,5.20
2019-01-27T19:13:23.957Z,5.10
2019-01-27T19:16:13.325Z,5.10
2019-01-27T19:19:14.243Z,5.10
2019-01-27T19:22:15.648Z,5.10
2019-01-27T19:25:10.972Z,5.20
2019-01-27T19:28:15.137Z,5.20
2019-01-27T19:34:57.663Z,5.20
2019-01-27T19:38:07.715Z,5.10
2019-01-27T19:41:28.763Z,5.10
2019-01-27T19:44:25.495Z,5.10
2019-01-27T19:47:32.063Z,5.00
2019-01-27T19:50:34.151Z,5.20
2019-01-27T19:53:27.305Z,5.20
2019-01-27T19:56:49.509Z,5.10
2019-01-27T19:59:52.223Z,5.10
2019-01-27T20:03:00.778Z,5.00
2019-01-27T20:06:00.273Z,5.00
2019-01-27T20:09:09.118Z,4.90
2019-01-27T20:12:17.809Z,4.90
2019-01-27T20:15:16.236Z,4.90
2019-01-27T20:18:24.837Z,4.90
2019-01-27T20:21:21.298Z,4.90
2019-01-27T20:24:29.835Z,4.90
2019-01-27T20:27:38.374Z,4.90
2019-01-27T20:30:40.068Z,4.90
2019-01-27T20:33:29.981Z,4.90
2019-01-27T20:36:38.482Z,4.90
2019-01-27T20:39:45.527Z,4.80
2019-01-27T20:42:47.102Z,4.80
2019-01-27T20:45:49.897Z,4.80
2019-01-27T20:48:57.244Z,4.80
2019-01-27T20:55:17.681Z,4.80
2019-01-27T21:01:23.577Z,4.70
2019-01-27T21:04:12.710Z,4.80
2019-01-27T21:07:35.906Z,4.80
2019-01-27T21:10:40.449Z,4.80
2019-01-27T21:13:47.352Z,4.80
2019-01-27T21:16:48.729Z,4.80
2019-01-27T21:19:36.857Z,4.80
2019-01-27T21:22:18.743Z,4.80
2019-01-27T21:25:00.892Z,4.80
2019-01-27T21:27:43.655Z,4.80
2019-01-27T21:30:26.311Z,4.80
2019-01-27T21:33:08.663Z,4.80
2019-01-27T21:35:50.855Z,4.80
2019-01-27T21:38:33.370Z,4.80
2019-01-27T21:41:15.795Z,4.80
2019-01-27T21:43:58.370Z,4.80
2019-01-27T21:46:40.609Z,4.80
2019-01-27T21:49:22.658Z,4.80
2019-01-27T21:52:04.506Z,4.80
2019-01-27T21:54:46.522Z,4.80
2019-01-27T21:57:28.665Z,4.80
2019-01-27T22:00:11.183Z,4.80
2019-01-27T22:02:53.907Z,4.80
2019-01-27T22:05:36.582Z,4.80
2019-01-27T22:08:18.286Z,4.80
2019-01-27T22:11:00.903Z,4.70
2019-01-27T22:13:43.039Z,4.70
2019-01-27T22:16:25.082Z,4.70
2019-01-27T22:19:06.985Z,4.70
2019-01-27T22:21:49.131Z,4.70
2019-01-27T22:24:32.704Z,4.60
2019-01-27T22:27:15.264Z,4.70
2019-01-27T22:29:57.802Z,4.70
2019-01-27T22:32:40.454Z,4.60
2019-01-27T22:35:22.658Z,4.60
2019-01-27T22:38:05.291Z,4.50
2019-01-27T22:40:47.334Z,4.50
2019-01-27T22:43:29.833Z,4.50
2019-01-27T22:46:12.354Z,4.50
2019-01-27T22:48:54.467Z,4.40
2019-01-27T22:51:36.433Z,4.40
2019-01-27T22:54:19.119Z,4.40
2019-01-27T22:57:01.714Z,4.40
2019-01-27T22:59:44.159Z,4.40
2019-01-27T23:02:26.419Z,4.30
2019-01-27T23:05:09.853Z,4.20
2019-01-27T23:07:52.762Z,4.20
2019-01-27T23:10:34.965Z,4.20
2019-01-27T23:13:17.065Z,4.20
2019-01-27T23:15:59.140Z,4.20
2019-01-27T23:18:41.795Z,4.10
2019-01-27T23:21:23.706Z,4.20
2019-01-27T23:24:06.405Z,4.20
2019-01-27T23:26:48.851Z,4.20
2019-01-27T23:29:31.573Z,4.10
2019-01-27T23:32:13.920Z,4.10
2019-01-27T23:34:56.018Z,4.10
2019-01-27T23:37:37.948Z,4.10
2019-01-27T23:40:19.849Z,4.00
2019-01-27T23:43:01.884Z,4.00
2019-01-27T23:45:44.207Z,4.00
2019-01-27T23:48:26.347Z,4.00
2019-01-27T23:51:08.585Z,4.00
2019-01-27T23:53:50.982Z,4.00
2019-01-27T23:56:33.142Z,4.00
2019-01-27T23:59:15.362Z,4.00
